Lindsay, Montana
Current Conditions -  °F | °C
As of 5:35 AM on Sunday 23 Nov 2014 (Local Time) from KGDV Reporting Station
Overcast Overcast  
Wind Chill: 18°   Ceiling: 2100
Heat Index: 32°   Visibility: 10mi
Dew Point: 25°   Wind: 28mph
Humidity: 75%   Direction: 270°W
Pressure: 29.59"   Gusts: 36mph
Location:  47.22°N, 105.15°W
Report Text: KGDV 231235Z AUTO 27024G31KT 10SM OVC021 00/M04 A2959 RMK AO1
Loading
Personal Weather Stations






























Interactive Weather Map New forecast layout! Learn more

10-Day Weather Forecast

Advertisements
Track Severe Weather on mobile